TFM - Tactical Decision Aid (Experimental) INFO Settings
ID: Runway Winds: CIG/VIS Threshold: METAR Board: Map:

KCLT - Charlotte-Douglas Intl

Updated at: 0019 UTC 27 Jun 2017
Latest TAF at: 2322 UTC 26 Jun 2017

TAF Board

Time2352Z27/01Z27/02Z27/03Z27/04Z27/05Z27/06Z27/07Z27/08Z27/09Z27/10Z27/11Z27/12Z27/13Z
TypeOBSPRVLPRVLPRVLPRVLPRVLPRVLPRVLPRVLPRVLPRVLPRVLPRVLPRVL
VIS10>6>6>6>6>6>6>6>6>6>6>6>6>6
CIG180200200200200200200120120120120120120120
CoverBKNBKNBKNBKNBKNBKNBKNBKNBKNBKNBKNBKNBKNBKN
FltCatVFRVFRVFRVFRVFRVFRVFRVFRVFRVFRVFRVFRVFRVFR
WX----------------------------
WDir210230230230230230230360360360360360360360
WSpd43333336666666
WGst----------------------------
TAF
KCLT 262322Z 2700/2724 23003KT P6SM FEW070 BKN200
  FM270700 36006KT P6SM SCT060 BKN120
  FM272000 01005KT P6SM SCT070


METAR
KCLT 262352Z 21004KT 10SM FEW050 BKN180 26/13 A3004 RMK AO2 SLP166 T02610133 10289 20256 56011
KCLT 262252Z VRB05KT 10SM FEW050 FEW180 SCT250 28/11 A3005 RMK AO2 SLP168 T02780106

TAF/METAR Board Legend

Potential Impact
  None Marginal Slight Moderate High
Visibility (sm) >5 3≤X≤5 1≤X<3 0.5≤X<1 <0.5
Ceiling (100 ft) >30 10≤X≤30 4≤X<10 2≤X<4 <2
Wind Speed (kt) <10 10≤X<20 20≤X<30 ≥30
Wind Gust (kt) <15 15≤X<25 25≤X<35 ≥35
Weather No Wx Reported VCTS -TS,-FZRA TS,FZRA +TS,+FZRA



Page loaded:  00:19 UTC  |   05:19 PM Pacific  |   06:19 PM Mountain  |   07:19 PM Central  |   08:19 PM Eastern

 

ADVISORIES

FORECASTS

FORECASTS

OBSERVATIONS

USER TOOLS

ABOUT US